Time;durP1;ratioP1;P1;durP2;ratioP2;P2;SDS_P1;SDS_P2;PMS_P1;PMS_P2;Temp;Humidity;BMP_temperature;BMP_pressure;BME280_temperature;BME280_humidity;BME280_pressure;Samples;Min_cycle;Max_cycle;Signal;HPM_P1;HPM_P2
2022/03/20 00:00:30;;;;;;;3.03;1.77;;;;;;;;;;5055658;28;20193;-69
2022/03/20 00:02:55;;;;;;;5.23;1.93;;;;;;;;;;5062494;28;20208;-69
2022/03/20 00:05:20;;;;;;;3.03;1.60;;;;;;;;;;5055546;28;20177;-69
2022/03/20 00:07:46;;;;;;;3.27;2.20;;;;;;;;;;5049020;28;20256;-69
2022/03/20 00:10:11;;;;;;;2.30;1.90;;;;;;;;;;5063000;28;20204;-69
2022/03/20 00:12:37;;;;;;;3.30;1.93;;;;;;;;;;5054668;28;20180;-69
2022/03/20 00:15:03;;;;;;;3.90;2.10;;;;;;;;;;5035974;28;20212;-69
2022/03/20 00:17:29;;;;;;;4.97;2.63;;;;;;;;;;5062557;28;20184;-69
2022/03/20 00:19:54;;;;;;;4.20;1.93;;;;;;;;;;5061101;28;20704;-69
2022/03/20 00:22:19;;;;;;;4.37;2.30;;;;;;;;;;5053986;28;20174;-69
2022/03/20 00:24:44;;;;;;;6.40;2.50;;;;;;;;;;5054216;28;20265;-69
2022/03/20 00:27:13;;;;;;;8.40;2.70;;;;;;;;;;5053998;28;20177;-69
2022/03/20 00:29:39;;;;;;;4.70;2.50;;;;;;;;;;5054015;28;20192;-69
2022/03/20 00:32:05;;;;;;;4.27;2.33;;;;;;;;;;5058098;28;20670;-69
2022/03/20 00:34:30;;;;;;;4.27;3.13;;;;;;;;;;5062050;28;20232;-69
2022/03/20 00:36:55;;;;;;;4.40;2.80;;;;;;;;;;5054104;28;20528;-69
2022/03/20 00:39:21;;;;;;;6.07;2.83;;;;;;;;;;5054152;28;20618;-69
2022/03/20 00:41:46;;;;;;;6.23;2.73;;;;;;;;;;5053780;28;20214;-69
2022/03/20 00:44:11;;;;;;;6.17;3.57;;;;;;;;;;5054078;28;20256;-69
2022/03/20 00:46:36;;;;;;;7.97;3.27;;;;;;;;;;5058755;28;20212;-69
2022/03/20 00:49:01;;;;;;;6.07;3.10;;;;;;;;;;5060636;28;20177;-70
2022/03/20 00:51:27;;;;;;;6.60;3.40;;;;;;;;;;5057793;28;20258;-69
2022/03/20 00:53:53;;;;;;;5.70;3.33;;;;;;;;;;5058198;28;20212;-71
2022/03/20 00:56:18;;;;;;;6.03;4.43;;;;;;;;;;5052714;28;20190;-69
2022/03/20 00:58:43;;;;;;;7.00;4.10;;;;;;;;;;5052946;28;20184;-69
2022/03/20 01:01:10;;;;;;;6.50;4.17;;;;;;;;;;5060481;28;20197;-69
2022/03/20 01:03:35;;;;;;;6.53;4.30;;;;;;;;;;5043256;28;20177;-69
2022/03/20 01:06:01;;;;;;;7.57;4.70;;;;;;;;;;5053463;28;20177;-69
2022/03/20 01:08:26;;;;;;;7.10;5.13;;;;;;;;;;5053521;28;20197;-69
2022/03/20 01:10:51;;;;;;;7.13;4.53;;;;;;;;;;5053488;28;20233;-69
2022/03/20 01:13:17;;;;;;;7.60;4.53;;;;;;;;;;5053389;28;20201;-69
2022/03/20 01:15:42;;;;;;;8.47;4.93;;;;;;;;;;5054135;28;20196;-69
2022/03/20 01:18:08;;;;;;;7.37;4.90;;;;;;;;;;5067564;28;20165;-69
2022/03/20 01:20:33;;;;;;;8.50;5.27;;;;;;;;;;5053959;28;20193;-69
2022/03/20 01:22:59;;;;;;;6.70;5.10;;;;;;;;;;5067680;28;20176;-69
2022/03/20 01:25:24;;;;;;;10.67;5.50;;;;;;;;;;5053871;28;20205;-69
2022/03/20 01:27:49;;;;;;;8.57;5.57;;;;;;;;;;5053220;28;20215;-69
2022/03/20 01:30:14;;;;;;;10.03;5.30;;;;;;;;;;5052843;28;20205;-69
2022/03/20 01:32:40;;;;;;;10.07;6.17;;;;;;;;;;5060732;28;20216;-69
2022/03/20 01:35:07;;;;;;;13.63;6.33;;;;;;;;;;5057468;28;20201;-69
2022/03/20 01:37:32;;;;;;;10.93;6.10;;;;;;;;;;5051394;28;20245;-69
2022/03/20 01:39:57;;;;;;;9.03;6.90;;;;;;;;;;5062943;28;20610;-69
2022/03/20 01:42:22;;;;;;;7.50;6.10;;;;;;;;;;5052868;28;20177;-69
2022/03/20 01:44:48;;;;;;;9.47;6.03;;;;;;;;;;5052600;28;20193;-69
2022/03/20 01:47:13;;;;;;;13.03;7.20;;;;;;;;;;5053297;28;20192;-69
2022/03/20 01:49:38;;;;;;;10.17;6.30;;;;;;;;;;5064413;28;20177;-69
2022/03/20 01:52:23;;;;;;;13.77;7.33;;;;;;;;;;5052297;28;20675;-69
2022/03/20 01:54:49;;;;;;;9.77;6.70;;;;;;;;;;5045067;28;20200;-69
2022/03/20 01:57:17;;;;;;;9.50;6.97;;;;;;;;;;5052769;28;20185;-69
2022/03/20 01:59:43;;;;;;;12.40;8.50;;;;;;;;;;5052571;28;20169;-69
2022/03/20 02:02:09;;;;;;;11.57;7.90;;;;;;;;;;5052430;28;20178;-68
2022/03/20 02:04:35;;;;;;;13.10;8.23;;;;;;;;;;5060091;28;20207;-68
2022/03/20 02:07:02;;;;;;;8.53;7.40;;;;;;;;;;5060158;28;20178;-68
2022/03/20 02:09:27;;;;;;;11.10;7.43;;;;;;;;;;5060719;28;20254;-70
2022/03/20 02:11:52;;;;;;;12.70;7.53;;;;;;;;;;5065469;28;20682;-70
2022/03/20 02:14:17;;;;;;;10.20;7.47;;;;;;;;;;5057884;28;20228;-68
2022/03/20 02:16:43;;;;;;;8.87;7.40;;;;;;;;;;5034686;28;20173;-70
2022/03/20 02:19:08;;;;;;;9.87;7.57;;;;;;;;;;5051487;28;20303;-69
2022/03/20 02:21:51;;;;;;;14.33;7.73;;;;;;;;;;5061108;28;20189;-69
2022/03/20 02:24:32;;;;;;;12.60;7.27;;;;;;;;;;5054221;28;20515;-69
2022/03/20 02:27:01;;;;;;;11.67;8.07;;;;;;;;;;5052392;28;20185;-69
2022/03/20 02:29:26;;;;;;;10.97;8.37;;;;;;;;;;5052237;28;20228;-69
2022/03/20 02:31:51;;;;;;;11.07;7.70;;;;;;;;;;5051716;28;20252;-68
2022/03/20 02:34:16;;;;;;;10.37;7.67;;;;;;;;;;5049137;28;20194;-68
2022/03/20 02:36:41;;;;;;;10.93;7.30;;;;;;;;;;5054173;28;20172;-69
2022/03/20 02:39:07;;;;;;;11.03;5.90;;;;;;;;;;5042259;28;20705;-68
2022/03/20 02:41:32;;;;;;;10.80;7.00;;;;;;;;;;5053694;28;20246;-68
2022/03/20 02:44:02;;;;;;;13.83;7.77;;;;;;;;;;5059911;28;20312;-69
2022/03/20 02:46:27;;;;;;;9.53;6.53;;;;;;;;;;5051647;28;20174;-69
2022/03/20 02:48:53;;;;;;;10.43;7.27;;;;;;;;;;5051915;28;20666;-68
2022/03/20 02:51:18;;;;;;;12.13;7.30;;;;;;;;;;5050765;28;20667;-68
2022/03/20 02:53:43;;;;;;;11.23;6.60;;;;;;;;;;5061561;28;20201;-68
2022/03/20 02:56:10;;;;;;;11.50;6.57;;;;;;;;;;5058485;28;20178;-68
2022/03/20 02:58:36;;;;;;;12.60;8.00;;;;;;;;;;5055916;28;20177;-67
2022/03/20 03:01:01;;;;;;;9.23;6.20;;;;;;;;;;5056586;28;20370;-67
2022/03/20 03:03:26;;;;;;;9.87;6.10;;;;;;;;;;5059091;28;20181;-69
2022/03/20 03:05:55;;;;;;;10.37;6.67;;;;;;;;;;5051193;28;20260;-71
2022/03/20 03:11:04;;;;;;;8.10;6.50;;;;;;;;;;5060653;28;20203;-68
2022/03/20 03:13:29;;;;;;;12.17;6.67;;;;;;;;;;5057861;28;20209;-66
2022/03/20 03:15:56;;;;;;;10.17;6.37;;;;;;;;;;5059018;28;20252;-69
2022/03/20 03:18:22;;;;;;;8.03;6.23;;;;;;;;;;5055946;28;20188;-67
2022/03/20 03:20:50;;;;;;;11.03;6.03;;;;;;;;;;5051147;28;20193;-67
2022/03/20 03:23:15;;;;;;;9.80;7.30;;;;;;;;;;5050657;28;20620;-68
2022/03/20 03:25:40;;;;;;;11.53;6.90;;;;;;;;;;5054678;28;20523;-68
2022/03/20 03:28:06;;;;;;;9.80;6.50;;;;;;;;;;5063742;28;20256;-68
2022/03/20 03:30:32;;;;;;;10.90;7.10;;;;;;;;;;5044912;28;20232;-68
2022/03/20 03:32:57;;;;;;;9.70;6.90;;;;;;;;;;5064574;28;20189;-68
2022/03/20 03:38:07;;;;;;;14.00;7.40;;;;;;;;;;5051010;28;20176;-67
2022/03/20 03:40:32;;;;;;;10.80;7.17;;;;;;;;;;5050662;28;20571;-66
2022/03/20 03:43:02;;;;;;;13.27;7.73;;;;;;;;;;5056616;28;20609;-69
2022/03/20 03:45:27;;;;;;;12.60;7.53;;;;;;;;;;5050853;28;20174;-69
2022/03/20 03:47:52;;;;;;;12.03;7.97;;;;;;;;;;5057935;28;20237;-69
2022/03/20 03:50:19;;;;;;;12.10;7.17;;;;;;;;;;5059624;28;20194;-70
2022/03/20 03:52:44;;;;;;;11.90;7.87;;;;;;;;;;5046508;28;20193;-69
2022/03/20 03:55:09;;;;;;;12.47;8.27;;;;;;;;;;5059439;28;20588;-67
2022/03/20 03:57:34;;;;;;;14.50;7.73;;;;;;;;;;5059610;28;20170;-68
2022/03/20 03:59:59;;;;;;;10.40;7.57;;;;;;;;;;5050446;28;20201;-70
2022/03/20 04:02:25;;;;;;;14.07;7.80;;;;;;;;;;5050568;28;20646;-68
2022/03/20 04:04:50;;;;;;;11.37;8.40;;;;;;;;;;5050319;28;20201;-68
2022/03/20 04:07:18;;;;;;;11.37;8.10;;;;;;;;;;5051093;28;20563;-68
2022/03/20 04:09:44;;;;;;;11.97;8.17;;;;;;;;;;5061407;28;20208;-68
2022/03/20 04:12:09;;;;;;;12.10;7.90;;;;;;;;;;5058602;28;20212;-68
2022/03/20 04:14:35;;;;;;;13.70;8.00;;;;;;;;;;5061732;28;20201;-68
2022/03/20 04:17:00;;;;;;;15.07;9.27;;;;;;;;;;5050738;28;20227;-67
2022/03/20 04:19:25;;;;;;;12.27;7.33;;;;;;;;;;5050301;28;20624;-67
2022/03/20 04:21:50;;;;;;;12.33;7.70;;;;;;;;;;5049799;28;20277;-67
2022/03/20 04:24:16;;;;;;;15.57;8.00;;;;;;;;;;5060268;28;20180;-68
2022/03/20 04:26:41;;;;;;;13.30;8.20;;;;;;;;;;5056818;28;20235;-68
2022/03/20 04:29:06;;;;;;;11.30;8.47;;;;;;;;;;5057215;28;20224;-68
2022/03/20 04:31:31;;;;;;;15.47;8.57;;;;;;;;;;5047128;28;20201;-68
2022/03/20 04:33:57;;;;;;;13.63;8.40;;;;;;;;;;5053286;28;20777;-68
2022/03/20 04:36:23;;;;;;;10.90;8.43;;;;;;;;;;5053905;28;20178;-68
2022/03/20 04:38:50;;;;;;;15.13;9.13;;;;;;;;;;5053083;28;20216;-67
2022/03/20 04:41:17;;;;;;;15.03;9.00;;;;;;;;;;5062648;28;20193;-68
2022/03/20 04:43:42;;;;;;;14.63;8.87;;;;;;;;;;5054214;28;20261;-69
2022/03/20 04:46:08;;;;;;;12.37;9.07;;;;;;;;;;5055074;28;20663;-69
2022/03/20 04:59:29;;;;;;;14.50;9.33;;;;;;;;;;5054392;28;20219;-66
2022/03/20 05:01:54;;;;;;;13.47;9.07;;;;;;;;;;5040223;28;20194;-69
2022/03/20 05:04:19;;;;;;;16.10;9.70;;;;;;;;;;5058533;28;20177;-69
2022/03/20 05:06:45;;;;;;;17.43;10.60;;;;;;;;;;5039547;28;20192;-69
2022/03/20 05:14:38;;;;;;;14.83;10.77;;;;;;;;;;5068338;28;20262;-69
2022/03/20 05:17:04;;;;;;;15.43;9.80;;;;;;;;;;5058338;28;20177;-69
2022/03/20 05:19:29;;;;;;;16.60;10.13;;;;;;;;;;5057464;28;20531;-69
2022/03/20 05:21:55;;;;;;;16.37;10.13;;;;;;;;;;5057574;28;20193;-69
2022/03/20 05:24:20;;;;;;;17.30;10.87;;;;;;;;;;5068528;28;20248;-68
2022/03/20 05:26:45;;;;;;;15.57;9.77;;;;;;;;;;5058543;28;20191;-67
2022/03/20 05:29:10;;;;;;;15.80;9.17;;;;;;;;;;5066158;28;20230;-70
2022/03/20 05:31:35;;;;;;;14.27;9.53;;;;;;;;;;5053225;28;20213;-68
2022/03/20 05:34:01;;;;;;;14.13;9.37;;;;;;;;;;5048399;28;20722;-68
2022/03/20 05:36:29;;;;;;;14.47;9.70;;;;;;;;;;5052263;28;20182;-67
2022/03/20 05:38:54;;;;;;;15.33;10.23;;;;;;;;;;5052145;28;20185;-68
2022/03/20 05:44:04;;;;;;;15.73;10.23;;;;;;;;;;5053819;28;20239;-68
2022/03/20 05:46:29;;;;;;;16.83;9.87;;;;;;;;;;5068485;28;20543;-68
2022/03/20 05:48:54;;;;;;;16.83;10.50;;;;;;;;;;5058612;28;20169;-68
2022/03/20 05:51:19;;;;;;;15.70;10.67;;;;;;;;;;5057366;28;20210;-68
2022/03/20 05:53:44;;;;;;;13.40;9.67;;;;;;;;;;5058083;28;20200;-68
2022/03/20 05:58:53;;;;;;;13.57;10.20;;;;;;;;;;5069096;28;20175;-68
2022/03/20 06:01:20;;;;;;;16.87;11.30;;;;;;;;;;5050123;28;20229;-68
2022/03/20 06:03:45;;;;;;;15.70;10.70;;;;;;;;;;5068818;28;20216;-68
2022/03/20 06:06:10;;;;;;;16.53;10.73;;;;;;;;;;5057175;28;20186;-68
2022/03/20 06:08:35;;;;;;;15.30;11.13;;;;;;;;;;5062010;28;20268;-68
2022/03/20 06:11:01;;;;;;;15.37;10.57;;;;;;;;;;5064542;28;20632;-67
2022/03/20 06:13:27;;;;;;;15.63;10.70;;;;;;;;;;5052360;28;20263;-67
2022/03/20 06:15:52;;;;;;;15.23;11.07;;;;;;;;;;5052168;28;20170;-68
2022/03/20 06:18:17;;;;;;;17.00;10.77;;;;;;;;;;5052424;28;20172;-67
2022/03/20 06:20:45;;;;;;;18.30;11.47;;;;;;;;;;5051869;28;20242;-68
2022/03/20 06:23:10;;;;;;;15.73;10.80;;;;;;;;;;5060135;28;20181;-68
2022/03/20 06:25:36;;;;;;;13.53;9.90;;;;;;;;;;5063411;28;20223;-68
2022/03/20 06:28:02;;;;;;;15.70;10.70;;;;;;;;;;5040908;28;20184;-68
2022/03/20 06:30:31;;;;;;;14.77;10.60;;;;;;;;;;5061516;28;20263;-68
2022/03/20 06:32:56;;;;;;;17.53;11.10;;;;;;;;;;5052162;28;20181;-68
2022/03/20 06:35:22;;;;;;;16.10;10.20;;;;;;;;;;5051403;28;20579;-68
2022/03/20 06:37:49;;;;;;;14.57;10.83;;;;;;;;;;5051869;28;20169;-68
2022/03/20 06:40:15;;;;;;;15.23;10.67;;;;;;;;;;5051715;28;20221;-67
2022/03/20 06:42:40;;;;;;;15.13;11.60;;;;;;;;;;5057630;28;20646;-68
2022/03/20 06:45:08;;;;;;;17.53;11.40;;;;;;;;;;5061997;28;20257;-68
2022/03/20 06:47:33;;;;;;;16.40;12.03;;;;;;;;;;5052820;28;20268;-67
2022/03/20 06:49:59;;;;;;;17.27;12.23;;;;;;;;;;5062280;28;20296;-67
2022/03/20 06:52:28;;;;;;;19.13;11.90;;;;;;;;;;5051528;28;20181;-68
2022/03/20 06:54:54;;;;;;;16.00;12.73;;;;;;;;;;5051204;28;20500;-68
2022/03/20 06:57:20;;;;;;;16.47;12.23;;;;;;;;;;5029478;28;20260;-68
2022/03/20 06:59:45;;;;;;;17.87;11.17;;;;;;;;;;5062421;28;20655;-68
2022/03/20 07:02:11;;;;;;;19.73;12.17;;;;;;;;;;5050566;28;20177;-68
2022/03/20 07:04:36;;;;;;;15.67;11.23;;;;;;;;;;5061211;28;20643;-68
2022/03/20 07:07:02;;;;;;;15.87;11.17;;;;;;;;;;5051299;28;20169;-68
2022/03/20 07:09:27;;;;;;;18.73;12.43;;;;;;;;;;5051520;28;20189;-68
2022/03/20 07:11:52;;;;;;;18.77;12.20;;;;;;;;;;5051232;28;20261;-67
2022/03/20 07:14:18;;;;;;;14.57;10.97;;;;;;;;;;5057192;28;20266;-68
2022/03/20 07:16:44;;;;;;;15.47;11.63;;;;;;;;;;5060751;28;20219;-68
2022/03/20 07:19:10;;;;;;;17.50;11.63;;;;;;;;;;5051057;28;20178;-67
2022/03/20 07:21:35;;;;;;;17.07;11.10;;;;;;;;;;5051075;28;20186;-68
2022/03/20 07:24:01;;;;;;;17.80;11.67;;;;;;;;;;5050829;28;20215;-68
2022/03/20 07:31:54;;;;;;;16.60;11.47;;;;;;;;;;5055288;28;20222;-68
2022/03/20 07:34:19;;;;;;;16.30;11.47;;;;;;;;;;5051660;28;20206;-68
2022/03/20 07:36:44;;;;;;;16.13;12.10;;;;;;;;;;5067909;28;20234;-68
2022/03/20 07:39:09;;;;;;;18.23;12.33;;;;;;;;;;5051056;28;20257;-68
2022/03/20 07:41:35;;;;;;;17.67;12.13;;;;;;;;;;5050566;28;20682;-69
2022/03/20 07:44:00;;;;;;;18.37;12.07;;;;;;;;;;5050946;28;20243;-68
2022/03/20 07:46:25;;;;;;;16.30;11.90;;;;;;;;;;5032718;28;20280;-68
2022/03/20 07:48:50;;;;;;;17.00;13.20;;;;;;;;;;5063079;28;20184;-68
2022/03/20 07:51:17;;;;;;;16.47;12.03;;;;;;;;;;5053574;28;20633;-68
2022/03/20 07:53:42;;;;;;;20.87;11.80;;;;;;;;;;5043634;28;20367;-68
2022/03/20 07:56:07;;;;;;;18.50;12.10;;;;;;;;;;5054969;28;20262;-69
2022/03/20 07:58:32;;;;;;;17.17;11.70;;;;;;;;;;5050931;28;20209;-68
2022/03/20 08:00:57;;;;;;;16.03;11.23;;;;;;;;;;5050718;28;20277;-68
2022/03/20 08:03:23;;;;;;;21.00;11.80;;;;;;;;;;5053373;28;20603;-68
2022/03/20 08:05:48;;;;;;;18.20;12.83;;;;;;;;;;5067184;28;20208;-68
2022/03/20 08:08:16;;;;;;;18.37;12.13;;;;;;;;;;5055034;28;20282;-68
2022/03/20 08:10:41;;;;;;;17.33;11.80;;;;;;;;;;5066927;28;20270;-68
2022/03/20 08:13:08;;;;;;;15.20;11.67;;;;;;;;;;5054590;28;20266;-68
2022/03/20 08:15:33;;;;;;;22.67;12.70;;;;;;;;;;5037090;28;20204;-68
2022/03/20 08:17:59;;;;;;;17.03;12.20;;;;;;;;;;5068128;28;20176;-69
2022/03/20 08:20:24;;;;;;;18.20;12.43;;;;;;;;;;5055274;28;20208;-68
2022/03/20 08:22:49;;;;;;;18.23;13.17;;;;;;;;;;5054613;28;20169;-69
2022/03/20 08:25:14;;;;;;;15.20;11.87;;;;;;;;;;5053954;28;20193;-68
2022/03/20 08:27:43;;;;;;;18.30;12.70;;;;;;;;;;5036601;28;20567;-68
2022/03/20 08:30:12;;;;;;;14.77;12.43;;;;;;;;;;5053434;28;20744;-68
2022/03/20 08:32:38;;;;;;;19.57;13.53;;;;;;;;;;5057797;28;20181;-69
2022/03/20 08:35:04;;;;;;;19.53;13.47;;;;;;;;;;5056940;28;20666;-69
2022/03/20 08:37:31;;;;;;;17.33;13.13;;;;;;;;;;5060368;28;20642;-69
2022/03/20 08:39:56;;;;;;;19.80;13.67;;;;;;;;;;5042040;28;20197;-69
2022/03/20 08:42:22;;;;;;;16.97;12.77;;;;;;;;;;5054802;28;20170;-68
2022/03/20 08:44:50;;;;;;;16.93;12.87;;;;;;;;;;5053733;28;20177;-69
2022/03/20 08:47:16;;;;;;;18.33;14.00;;;;;;;;;;5054709;28;20209;-69
2022/03/20 08:49:41;;;;;;;16.87;13.17;;;;;;;;;;5061077;28;20193;-68
2022/03/20 08:52:06;;;;;;;16.13;13.07;;;;;;;;;;5052665;28;20261;-68
2022/03/20 08:54:31;;;;;;;18.80;14.63;;;;;;;;;;5055715;28;20632;-69
2022/03/20 08:56:57;;;;;;;21.07;13.67;;;;;;;;;;5063196;28;20178;-68
2022/03/20 08:59:22;;;;;;;19.10;14.20;;;;;;;;;;5063494;28;20181;-68
2022/03/20 09:01:47;;;;;;;17.87;13.37;;;;;;;;;;5054632;28;20197;-68
2022/03/20 09:04:12;;;;;;;17.80;14.10;;;;;;;;;;5053825;28;20705;-69
2022/03/20 09:06:43;;;;;;;16.40;13.70;;;;;;;;;;5053463;28;20219;-69
2022/03/20 09:09:08;;;;;;;20.87;13.93;;;;;;;;;;5053974;28;20201;-69
2022/03/20 09:11:33;;;;;;;17.00;13.33;;;;;;;;;;5055536;28;20212;-68
2022/03/20 09:13:58;;;;;;;18.33;13.13;;;;;;;;;;5062390;28;20210;-68
2022/03/20 09:19:08;;;;;;;19.20;14.70;;;;;;;;;;5066745;28;20187;-69
2022/03/20 09:21:36;;;;;;;20.60;13.87;;;;;;;;;;5053532;28;20196;-69
2022/03/20 09:24:02;;;;;;;20.50;14.93;;;;;;;;;;5035248;28;20672;-69
2022/03/20 09:26:27;;;;;;;17.80;13.20;;;;;;;;;;5053626;28;20260;-69
2022/03/20 09:28:53;;;;;;;17.67;13.20;;;;;;;;;;5058973;28;20508;-69
2022/03/20 09:31:19;;;;;;;23.53;14.37;;;;;;;;;;5063049;28;20221;-69
2022/03/20 09:33:45;;;;;;;21.30;14.83;;;;;;;;;;5053145;28;20255;-69
2022/03/20 09:36:10;;;;;;;19.13;15.17;;;;;;;;;;5049073;28;20182;-69
2022/03/20 09:38:36;;;;;;;20.80;14.37;;;;;;;;;;5049861;28;20193;-69
2022/03/20 09:41:03;;;;;;;21.70;14.47;;;;;;;;;;5038706;28;20706;-69
2022/03/20 09:43:30;;;;;;;19.67;13.27;;;;;;;;;;5063854;28;20182;-67
2022/03/20 09:45:55;;;;;;;17.13;13.47;;;;;;;;;;5048872;28;20236;-70
2022/03/20 09:48:20;;;;;;;20.93;14.40;;;;;;;;;;5061802;28;20587;-69
2022/03/20 09:50:47;;;;;;;17.67;13.93;;;;;;;;;;5056618;28;20197;-68
2022/03/20 09:53:12;;;;;;;20.67;14.17;;;;;;;;;;5056341;28;20190;-69
2022/03/20 09:55:37;;;;;;;18.83;14.33;;;;;;;;;;5046555;28;20205;-69
2022/03/20 09:58:02;;;;;;;22.20;14.43;;;;;;;;;;5057225;28;20631;-69
2022/03/20 10:00:28;;;;;;;23.17;14.67;;;;;;;;;;5052936;28;20567;-70
2022/03/20 10:02:53;;;;;;;23.43;15.37;;;;;;;;;;5051622;28;20270;-70
2022/03/20 10:05:19;;;;;;;22.13;15.80;;;;;;;;;;5063542;28;20190;-69
2022/03/20 10:07:44;;;;;;;21.40;14.30;;;;;;;;;;5057526;28;20556;-69
2022/03/20 10:10:14;;;;;;;17.60;14.07;;;;;;;;;;5062411;28;20202;-69
2022/03/20 10:12:43;;;;;;;17.73;14.40;;;;;;;;;;5067044;28;20181;-69
2022/03/20 10:15:09;;;;;;;23.90;16.17;;;;;;;;;;5052069;28;20193;-69
2022/03/20 10:17:35;;;;;;;32.77;16.47;;;;;;;;;;5054058;28;20181;-69
2022/03/20 10:20:12;;;;;;;20.83;15.13;;;;;;;;;;5061226;28;20571;-69
2022/03/20 10:22:37;;;;;;;21.83;15.20;;;;;;;;;;5050363;28;20218;-69
2022/03/20 10:25:02;;;;;;;23.27;16.20;;;;;;;;;;5067505;28;20650;-69
2022/03/20 10:27:28;;;;;;;21.47;16.23;;;;;;;;;;5052236;28;20170;-70
2022/03/20 10:29:54;;;;;;;19.00;14.73;;;;;;;;;;5051072;28;20188;-69
2022/03/20 10:32:20;;;;;;;20.30;14.97;;;;;;;;;;5061865;28;20223;-69
2022/03/20 10:34:49;;;;;;;20.87;15.83;;;;;;;;;;5052787;28;20189;-70
2022/03/20 10:37:18;;;;;;;17.73;14.77;;;;;;;;;;5064146;28;20184;-70
2022/03/20 10:39:43;;;;;;;19.30;14.77;;;;;;;;;;5058436;28;20586;-70
2022/03/20 10:42:13;;;;;;;25.57;15.77;;;;;;;;;;5052150;28;20347;-70
2022/03/20 10:44:39;;;;;;;20.43;15.70;;;;;;;;;;5051254;28;20208;-68
2022/03/20 10:47:13;;;;;;;19.87;15.17;;;;;;;;;;5062018;28;20822;-70
2022/03/20 10:49:39;;;;;;;20.43;15.67;;;;;;;;;;5045958;28;20549;-70
2022/03/20 10:52:31;;;;;;;21.07;16.53;;;;;;;;;;5050858;28;20181;-70
2022/03/20 10:54:56;;;;;;;21.40;15.67;;;;;;;;;;5056625;28;20319;-70
2022/03/20 10:57:22;;;;;;;20.13;14.27;;;;;;;;;;5058526;28;20672;-70
2022/03/20 10:59:56;;;;;;;20.17;15.63;;;;;;;;;;5061550;28;20185;-70
2022/03/20 11:02:23;;;;;;;21.20;15.80;;;;;;;;;;5057689;28;20199;-70
2022/03/20 11:04:48;;;;;;;22.07;15.97;;;;;;;;;;5058416;28;20181;-68
2022/03/20 11:07:16;;;;;;;24.23;17.27;;;;;;;;;;5057010;28;20203;-70
2022/03/20 11:09:43;;;;;;;26.27;19.10;;;;;;;;;;5051188;28;20200;-70
2022/03/20 11:12:09;;;;;;;29.67;18.50;;;;;;;;;;5051424;28;20174;-70
2022/03/20 11:14:36;;;;;;;27.23;19.13;;;;;;;;;;5051223;28;20193;-70
2022/03/20 11:17:03;;;;;;;27.10;19.10;;;;;;;;;;5049717;28;20647;-71
2022/03/20 11:19:29;;;;;;;29.70;21.87;;;;;;;;;;5060825;28;20596;-71
2022/03/20 11:21:59;;;;;;;27.93;20.00;;;;;;;;;;5037783;28;20193;-71
2022/03/20 11:24:24;;;;;;;29.03;20.70;;;;;;;;;;5058457;28;20189;-69
2022/03/20 11:26:50;;;;;;;28.37;19.90;;;;;;;;;;5057731;28;20169;-70
2022/03/20 11:29:18;;;;;;;33.27;21.50;;;;;;;;;;5050935;28;20177;-69
2022/03/20 11:31:43;;;;;;;29.50;21.90;;;;;;;;;;5053591;28;20205;-69
2022/03/20 11:34:09;;;;;;;29.90;21.87;;;;;;;;;;5057119;28;20284;-69
2022/03/20 11:37:10;;;;;;;28.90;20.60;;;;;;;;;;5053659;28;20165;-69
2022/03/20 11:39:36;;;;;;;27.47;21.50;;;;;;;;;;4977057;28;20196;-69
2022/03/20 11:42:21;;;;;;;27.27;20.70;;;;;;;;;;5034249;28;20288;-69
2022/03/20 11:44:50;;;;;;;28.80;21.37;;;;;;;;;;5043530;28;20654;-69
2022/03/20 11:47:15;;;;;;;28.43;21.30;;;;;;;;;;5059910;28;20185;-69
2022/03/20 11:49:40;;;;;;;28.67;21.83;;;;;;;;;;5054786;28;20186;-69
2022/03/20 11:52:07;;;;;;;28.13;21.47;;;;;;;;;;5057063;28;20201;-69
2022/03/20 11:54:52;;;;;;;25.60;19.67;;;;;;;;;;5044914;28;20695;-69
2022/03/20 11:57:23;;;;;;;29.63;21.17;;;;;;;;;;5050880;28;20200;-69
2022/03/20 11:59:49;;;;;;;31.13;22.90;;;;;;;;;;5048789;28;20228;-69
2022/03/20 12:02:18;;;;;;;28.30;22.07;;;;;;;;;;5065640;28;20181;-69
2022/03/20 12:04:47;;;;;;;30.23;22.13;;;;;;;;;;5050379;28;20268;-69
2022/03/20 12:07:22;;;;;;;30.53;21.63;;;;;;;;;;5050954;28;20211;-69
2022/03/20 12:09:57;;;;;;;31.57;21.53;;;;;;;;;;5050159;28;20177;-69
2022/03/20 12:12:35;;;;;;;28.13;21.47;;;;;;;;;;5049453;28;20182;-69
2022/03/20 12:15:06;;;;;;;29.90;21.73;;;;;;;;;;5063925;28;20236;-69
2022/03/20 12:17:50;;;;;;;29.80;22.47;;;;;;;;;;5060012;28;20177;-69
2022/03/20 12:20:35;;;;;;;28.90;20.57;;;;;;;;;;5064239;28;20196;-69
2022/03/20 12:23:19;;;;;;;31.37;23.13;;;;;;;;;;5046278;28;20178;-70
2022/03/20 12:25:44;;;;;;;27.97;21.87;;;;;;;;;;5047862;28;20180;-69
2022/03/20 12:28:27;;;;;;;27.03;20.80;;;;;;;;;;5059294;28;20177;-69
2022/03/20 12:30:52;;;;;;;28.00;21.67;;;;;;;;;;5049553;28;20699;-69
2022/03/20 12:33:24;;;;;;;31.70;22.00;;;;;;;;;;5056405;28;20243;-69
2022/03/20 12:35:50;;;;;;;29.90;22.10;;;;;;;;;;5056942;28;20177;-69
2022/03/20 12:38:31;;;;;;;29.10;21.83;;;;;;;;;;5050333;28;20174;-69
2022/03/20 12:41:04;;;;;;;28.20;22.33;;;;;;;;;;5046591;28;20209;-69
2022/03/20 12:43:30;;;;;;;26.83;21.23;;;;;;;;;;5046183;28;20243;-69
2022/03/20 12:45:57;;;;;;;25.80;21.50;;;;;;;;;;5050506;28;20186;-69
2022/03/20 12:48:22;;;;;;;30.47;22.40;;;;;;;;;;5036584;28;21481;-69
2022/03/20 12:51:06;;;;;;;30.37;22.00;;;;;;;;;;5066219;28;20202;-70
2022/03/20 12:53:39;;;;;;;27.10;21.77;;;;;;;;;;5052942;28;20575;-70
2022/03/20 12:56:09;;;;;;;28.43;23.00;;;;;;;;;;5053972;28;20618;-69
2022/03/20 12:58:34;;;;;;;29.40;22.20;;;;;;;;;;5028251;28;20165;-70
2022/03/20 13:01:05;;;;;;;29.10;22.57;;;;;;;;;;5058588;28;20195;-69
2022/03/20 13:03:31;;;;;;;24.57;21.10;;;;;;;;;;5064986;28;20185;-70
2022/03/20 13:06:00;;;;;;;29.70;23.30;;;;;;;;;;5060653;28;20176;-70
2022/03/20 13:08:29;;;;;;;28.90;22.17;;;;;;;;;;5061971;28;20189;-70
2022/03/20 13:10:56;;;;;;;27.93;22.07;;;;;;;;;;5053231;28;20284;-70
2022/03/20 13:13:28;;;;;;;25.83;22.37;;;;;;;;;;5054573;28;20194;-69
2022/03/20 13:15:53;;;;;;;26.30;21.90;;;;;;;;;;5070386;28;20184;-70
2022/03/20 13:18:22;;;;;;;25.97;20.47;;;;;;;;;;5035499;28;20720;-68
2022/03/20 13:20:48;;;;;;;29.03;24.17;;;;;;;;;;5052988;28;20208;-70
2022/03/20 13:23:18;;;;;;;26.87;21.53;;;;;;;;;;5053382;28;20204;-69
2022/03/20 13:25:44;;;;;;;29.23;21.57;;;;;;;;;;5052811;28;20180;-69
2022/03/20 13:28:26;;;;;;;32.17;22.57;;;;;;;;;;5053098;28;20238;-69
2022/03/20 13:30:51;;;;;;;29.20;22.63;;;;;;;;;;5062099;28;20217;-69
2022/03/20 13:33:26;;;;;;;27.37;22.00;;;;;;;;;;5058175;28;20666;-67
2022/03/20 13:35:52;;;;;;;29.83;22.53;;;;;;;;;;5057567;28;20586;-69
2022/03/20 13:38:17;;;;;;;30.37;22.13;;;;;;;;;;5040075;28;20654;-70
2022/03/20 13:40:43;;;;;;;29.63;21.50;;;;;;;;;;5057789;28;20300;-70
2022/03/20 13:43:11;;;;;;;27.63;21.90;;;;;;;;;;5052932;28;20170;-70
2022/03/20 13:45:38;;;;;;;27.87;21.70;;;;;;;;;;5052624;28;20177;-69
2022/03/20 13:48:04;;;;;;;26.37;20.87;;;;;;;;;;5052768;28;20183;-68
2022/03/20 13:50:30;;;;;;;30.70;22.93;;;;;;;;;;5052814;28;20193;-70
2022/03/20 13:52:55;;;;;;;29.83;21.67;;;;;;;;;;5055425;28;20184;-70
2022/03/20 13:55:21;;;;;;;25.17;21.17;;;;;;;;;;5062452;28;20200;-69
2022/03/20 13:57:47;;;;;;;29.63;22.83;;;;;;;;;;5055577;28;20623;-69
2022/03/20 14:00:12;;;;;;;30.23;21.73;;;;;;;;;;5061540;28;20687;-69
2022/03/20 14:02:42;;;;;;;28.20;22.20;;;;;;;;;;5051950;28;20204;-69
2022/03/20 14:05:11;;;;;;;28.30;20.73;;;;;;;;;;5051243;28;20179;-69
2022/03/20 14:07:37;;;;;;;27.77;22.97;;;;;;;;;;5062041;28;20177;-69
2022/03/20 14:10:15;;;;;;;27.07;22.00;;;;;;;;;;5059560;28;20193;-69
2022/03/20 14:12:41;;;;;;;26.57;21.03;;;;;;;;;;5049335;28;20243;-69
2022/03/20 14:15:06;;;;;;;27.37;20.83;;;;;;;;;;5052048;28;20742;-69
2022/03/20 14:17:38;;;;;;;28.07;21.70;;;;;;;;;;5049633;28;20213;-67
2022/03/20 14:20:05;;;;;;;26.63;20.93;;;;;;;;;;5052276;28;20202;-68
2022/03/20 14:22:44;;;;;;;27.93;22.30;;;;;;;;;;5054701;28;20183;-68
2022/03/20 14:25:09;;;;;;;26.30;21.50;;;;;;;;;;5064971;28;20191;-68
2022/03/20 14:27:39;;;;;;;25.67;20.73;;;;;;;;;;5061765;28;20543;-68
2022/03/20 14:41:25;;;;;;;27.33;21.35;;;;;;;;;;5046046;28;20232;-68
2022/03/20 14:44:02;;;;;;;29.90;22.17;;;;;;;;;;5059448;28;20177;-68
2022/03/20 14:46:29;;;;;;;26.80;22.13;;;;;;;;;;5051566;28;20177;-68
2022/03/20 14:48:56;;;;;;;26.65;20.88;;;;;;;;;;5051814;28;20177;-67
2022/03/20 14:51:21;;;;;;;25.63;20.38;;;;;;;;;;5062334;28;20213;-70
2022/03/20 14:53:46;;;;;;;26.02;21.00;;;;;;;;;;5049277;28;20682;-70
2022/03/20 14:56:12;;;;;;;26.07;21.10;;;;;;;;;;5053826;28;20248;-67
2022/03/20 14:58:37;;;;;;;29.17;23.27;;;;;;;;;;5037404;28;20185;-69
2022/03/20 15:01:02;;;;;;;26.60;21.47;;;;;;;;;;5062727;28;20276;-69
2022/03/20 15:03:27;;;;;;;29.63;21.53;;;;;;;;;;5050855;28;20179;-69
2022/03/20 15:05:52;;;;;;;26.07;21.50;;;;;;;;;;5062083;28;20187;-68
2022/03/20 15:13:45;;;;;;;27.47;21.50;;;;;;;;;;5044042;28;20181;-66